sensor_id;sensor_type;location;lat;lon;timestamp;P1;durP1;ratioP1;P2;durP2;ratioP2
15383;SDS011;7790;53.022;12.968;2022-07-10T00:03:23;3.87;;;1.20;;
15383;SDS011;7790;53.022;12.968;2022-07-10T00:07:23;1.67;;;1.10;;
15383;SDS011;7790;53.022;12.968;2022-07-10T00:11:24;3.63;;;1.03;;
15383;SDS011;7790;53.022;12.968;2022-07-10T00:15:25;2.17;;;1.20;;
15383;SDS011;7790;53.022;12.968;2022-07-10T00:19:26;1.73;;;0.90;;
15383;SDS011;7790;53.022;12.968;2022-07-10T00:23:26;1.37;;;0.90;;
15383;SDS011;7790;53.022;12.968;2022-07-10T00:27:27;1.73;;;0.93;;
15383;SDS011;7790;53.022;12.968;2022-07-10T00:31:28;2.17;;;0.77;;
15383;SDS011;7790;53.022;12.968;2022-07-10T00:35:29;2.40;;;0.80;;
15383;SDS011;7790;53.022;12.968;2022-07-10T00:39:30;3.90;;;0.90;;
15383;SDS011;7790;53.022;12.968;2022-07-10T00:47:51;4.63;;;1.20;;
15383;SDS011;7790;53.022;12.968;2022-07-10T00:51:52;3.07;;;1.03;;
15383;SDS011;7790;53.022;12.968;2022-07-10T00:55:54;1.03;;;0.70;;
15383;SDS011;7790;53.022;12.968;2022-07-10T00:59:55;2.50;;;0.80;;
15383;SDS011;7790;53.022;12.968;2022-07-10T01:03:55;1.83;;;0.80;;
15383;SDS011;7790;53.022;12.968;2022-07-10T01:07:56;2.60;;;0.90;;
15383;SDS011;7790;53.022;12.968;2022-07-10T01:11:58;1.33;;;0.67;;
15383;SDS011;7790;53.022;12.968;2022-07-10T01:16:01;2.30;;;0.73;;
15383;SDS011;7790;53.022;12.968;2022-07-10T01:20:05;1.67;;;0.70;;
15383;SDS011;7790;53.022;12.968;2022-07-10T01:24:08;2.33;;;0.80;;
15383;SDS011;7790;53.022;12.968;2022-07-10T01:28:09;1.00;;;0.70;;
15383;SDS011;7790;53.022;12.968;2022-07-10T01:32:10;1.40;;;0.77;;
15383;SDS011;7790;53.022;12.968;2022-07-10T01:36:11;3.83;;;0.70;;
15383;SDS011;7790;53.022;12.968;2022-07-10T01:40:12;0.87;;;0.60;;
15383;SDS011;7790;53.022;12.968;2022-07-10T01:44:13;1.70;;;0.83;;
15383;SDS011;7790;53.022;12.968;2022-07-10T01:48:14;1.33;;;0.80;;
15383;SDS011;7790;53.022;12.968;2022-07-10T01:52:15;1.00;;;0.50;;
15383;SDS011;7790;53.022;12.968;2022-07-10T01:56:16;0.80;;;0.60;;
15383;SDS011;7790;53.022;12.968;2022-07-10T02:00:17;1.20;;;0.80;;
15383;SDS011;7790;53.022;12.968;2022-07-10T02:04:17;1.17;;;0.70;;
15383;SDS011;7790;53.022;12.968;2022-07-10T02:08:37;0.80;;;0.60;;
15383;SDS011;7790;53.022;12.968;2022-07-10T02:12:38;0.70;;;0.60;;
15383;SDS011;7790;53.022;12.968;2022-07-10T02:16:38;1.23;;;0.60;;
15383;SDS011;7790;53.022;12.968;2022-07-10T02:20:39;0.87;;;0.53;;
15383;SDS011;7790;53.022;12.968;2022-07-10T02:24:40;1.17;;;0.70;;
15383;SDS011;7790;53.022;12.968;2022-07-10T02:28:41;0.80;;;0.40;;
15383;SDS011;7790;53.022;12.968;2022-07-10T02:32:42;1.00;;;0.60;;
15383;SDS011;7790;53.022;12.968;2022-07-10T02:36:42;1.53;;;0.70;;
15383;SDS011;7790;53.022;12.968;2022-07-10T02:40:43;0.90;;;0.50;;
15383;SDS011;7790;53.022;12.968;2022-07-10T02:44:44;1.17;;;0.63;;
15383;SDS011;7790;53.022;12.968;2022-07-10T02:48:45;3.63;;;0.77;;
15383;SDS011;7790;53.022;12.968;2022-07-10T02:52:46;0.63;;;0.50;;
15383;SDS011;7790;53.022;12.968;2022-07-10T02:56:47;1.50;;;0.80;;
15383;SDS011;7790;53.022;12.968;2022-07-10T03:00:48;0.67;;;0.50;;
15383;SDS011;7790;53.022;12.968;2022-07-10T03:04:49;0.47;;;0.40;;
15383;SDS011;7790;53.022;12.968;2022-07-10T03:08:49;0.73;;;0.30;;
15383;SDS011;7790;53.022;12.968;2022-07-10T03:12:50;0.90;;;0.57;;
15383;SDS011;7790;53.022;12.968;2022-07-10T03:16:51;1.23;;;0.83;;
15383;SDS011;7790;53.022;12.968;2022-07-10T03:20:52;1.17;;;0.60;;
15383;SDS011;7790;53.022;12.968;2022-07-10T03:24:52;1.23;;;0.57;;
15383;SDS011;7790;53.022;12.968;2022-07-10T03:28:53;1.33;;;0.80;;
15383;SDS011;7790;53.022;12.968;2022-07-10T03:32:54;0.60;;;0.50;;
15383;SDS011;7790;53.022;12.968;2022-07-10T03:36:55;0.90;;;0.70;;
15383;SDS011;7790;53.022;12.968;2022-07-10T03:40:56;0.50;;;0.40;;
15383;SDS011;7790;53.022;12.968;2022-07-10T03:44:56;0.80;;;0.50;;
15383;SDS011;7790;53.022;12.968;2022-07-10T03:48:57;0.83;;;0.50;;
15383;SDS011;7790;53.022;12.968;2022-07-10T03:52:58;1.03;;;0.77;;
15383;SDS011;7790;53.022;12.968;2022-07-10T03:56:59;0.80;;;0.80;;
15383;SDS011;7790;53.022;12.968;2022-07-10T04:01:18;1.27;;;0.60;;
15383;SDS011;7790;53.022;12.968;2022-07-10T04:05:19;1.07;;;0.50;;
15383;SDS011;7790;53.022;12.968;2022-07-10T04:09:20;1.30;;;0.60;;
15383;SDS011;7790;53.022;12.968;2022-07-10T04:13:21;0.93;;;0.60;;
15383;SDS011;7790;53.022;12.968;2022-07-10T04:17:22;1.57;;;0.70;;
15383;SDS011;7790;53.022;12.968;2022-07-10T04:21:22;0.83;;;0.80;;
15383;SDS011;7790;53.022;12.968;2022-07-10T04:25:23;0.80;;;0.50;;
15383;SDS011;7790;53.022;12.968;2022-07-10T04:29:24;0.93;;;0.70;;
15383;SDS011;7790;53.022;12.968;2022-07-10T04:33:25;0.57;;;0.50;;
15383;SDS011;7790;53.022;12.968;2022-07-10T04:37:26;1.20;;;0.50;;
15383;SDS011;7790;53.022;12.968;2022-07-10T04:41:28;1.60;;;0.80;;
15383;SDS011;7790;53.022;12.968;2022-07-10T04:45:29;0.93;;;0.60;;
15383;SDS011;7790;53.022;12.968;2022-07-10T04:49:29;0.87;;;0.50;;
15383;SDS011;7790;53.022;12.968;2022-07-10T04:53:30;0.90;;;0.50;;
15383;SDS011;7790;53.022;12.968;2022-07-10T04:57:31;1.57;;;0.70;;
15383;SDS011;7790;53.022;12.968;2022-07-10T05:01:32;0.37;;;0.37;;
15383;SDS011;7790;53.022;12.968;2022-07-10T05:05:32;0.50;;;0.47;;
15383;SDS011;7790;53.022;12.968;2022-07-10T05:09:33;1.33;;;0.70;;
15383;SDS011;7790;53.022;12.968;2022-07-10T05:13:34;1.00;;;0.63;;
15383;SDS011;7790;53.022;12.968;2022-07-10T05:17:35;1.10;;;0.67;;
15383;SDS011;7790;53.022;12.968;2022-07-10T05:21:36;0.87;;;0.57;;
15383;SDS011;7790;53.022;12.968;2022-07-10T05:25:37;0.93;;;0.73;;
15383;SDS011;7790;53.022;12.968;2022-07-10T05:29:38;1.57;;;0.63;;
15383;SDS011;7790;53.022;12.968;2022-07-10T05:33:39;0.57;;;0.47;;
15383;SDS011;7790;53.022;12.968;2022-07-10T05:37:40;0.70;;;0.40;;
15383;SDS011;7790;53.022;12.968;2022-07-10T05:41:41;0.43;;;0.43;;
15383;SDS011;7790;53.022;12.968;2022-07-10T05:45:42;0.70;;;0.50;;
15383;SDS011;7790;53.022;12.968;2022-07-10T05:49:43;0.90;;;0.50;;
15383;SDS011;7790;53.022;12.968;2022-07-10T05:53:44;0.80;;;0.50;;
15383;SDS011;7790;53.022;12.968;2022-07-10T05:57:44;0.73;;;0.50;;
15383;SDS011;7790;53.022;12.968;2022-07-10T06:01:45;1.00;;;0.70;;
15383;SDS011;7790;53.022;12.968;2022-07-10T06:05:46;1.60;;;0.70;;
15383;SDS011;7790;53.022;12.968;2022-07-10T06:09:47;1.00;;;0.60;;
15383;SDS011;7790;53.022;12.968;2022-07-10T06:13:48;1.07;;;0.60;;
15383;SDS011;7790;53.022;12.968;2022-07-10T06:17:49;1.80;;;0.63;;
15383;SDS011;7790;53.022;12.968;2022-07-10T06:21:49;0.80;;;0.47;;
15383;SDS011;7790;53.022;12.968;2022-07-10T06:26:10;0.53;;;0.40;;
15383;SDS011;7790;53.022;12.968;2022-07-10T06:30:11;0.87;;;0.50;;
15383;SDS011;7790;53.022;12.968;2022-07-10T06:34:12;2.97;;;0.60;;
15383;SDS011;7790;53.022;12.968;2022-07-10T06:38:13;0.90;;;0.70;;
15383;SDS011;7790;53.022;12.968;2022-07-10T06:42:14;0.70;;;0.70;;
15383;SDS011;7790;53.022;12.968;2022-07-10T06:46:15;0.70;;;0.50;;
15383;SDS011;7790;53.022;12.968;2022-07-10T06:50:16;1.03;;;0.60;;
15383;SDS011;7790;53.022;12.968;2022-07-10T06:54:17;0.77;;;0.50;;
15383;SDS011;7790;53.022;12.968;2022-07-10T06:58:18;1.57;;;0.80;;
15383;SDS011;7790;53.022;12.968;2022-07-10T07:02:19;1.00;;;0.67;;
15383;SDS011;7790;53.022;12.968;2022-07-10T07:06:20;1.73;;;0.80;;
15383;SDS011;7790;53.022;12.968;2022-07-10T07:10:20;1.73;;;0.77;;
15383;SDS011;7790;53.022;12.968;2022-07-10T07:14:21;1.43;;;0.70;;
15383;SDS011;7790;53.022;12.968;2022-07-10T07:18:22;1.40;;;0.80;;
15383;SDS011;7790;53.022;12.968;2022-07-10T07:22:32;1.87;;;0.60;;
15383;SDS011;7790;53.022;12.968;2022-07-10T07:26:51;1.90;;;0.83;;
15383;SDS011;7790;53.022;12.968;2022-07-10T07:30:51;1.50;;;0.60;;
15383;SDS011;7790;53.022;12.968;2022-07-10T07:34:52;2.00;;;0.80;;
15383;SDS011;7790;53.022;12.968;2022-07-10T07:38:53;0.70;;;0.50;;
15383;SDS011;7790;53.022;12.968;2022-07-10T07:42:54;1.40;;;0.60;;
15383;SDS011;7790;53.022;12.968;2022-07-10T07:46:55;0.60;;;0.60;;
15383;SDS011;7790;53.022;12.968;2022-07-10T07:50:56;1.73;;;0.60;;
15383;SDS011;7790;53.022;12.968;2022-07-10T07:54:57;1.67;;;0.77;;
15383;SDS011;7790;53.022;12.968;2022-07-10T07:58:58;2.37;;;0.87;;
15383;SDS011;7790;53.022;12.968;2022-07-10T08:02:59;3.17;;;1.00;;
15383;SDS011;7790;53.022;12.968;2022-07-10T08:07:00;1.10;;;0.60;;
15383;SDS011;7790;53.022;12.968;2022-07-10T08:11:02;1.90;;;0.80;;
15383;SDS011;7790;53.022;12.968;2022-07-10T08:15:03;2.20;;;0.80;;
15383;SDS011;7790;53.022;12.968;2022-07-10T08:19:04;1.83;;;1.10;;
15383;SDS011;7790;53.022;12.968;2022-07-10T08:23:05;2.53;;;0.80;;
15383;SDS011;7790;53.022;12.968;2022-07-10T08:27:06;3.17;;;0.90;;
15383;SDS011;7790;53.022;12.968;2022-07-10T08:31:08;2.27;;;1.10;;
15383;SDS011;7790;53.022;12.968;2022-07-10T08:35:09;5.13;;;1.13;;
15383;SDS011;7790;53.022;12.968;2022-07-10T08:39:14;3.63;;;1.20;;
15383;SDS011;7790;53.022;12.968;2022-07-10T08:43:17;3.87;;;1.30;;
15383;SDS011;7790;53.022;12.968;2022-07-10T08:47:20;5.17;;;1.30;;
15383;SDS011;7790;53.022;12.968;2022-07-10T08:51:36;3.37;;;1.10;;
15383;SDS011;7790;53.022;12.968;2022-07-10T08:55:41;9.87;;;1.90;;
15383;SDS011;7790;53.022;12.968;2022-07-10T08:59:42;17.57;;;5.60;;
15383;SDS011;7790;53.022;12.968;2022-07-10T09:03:44;27.60;;;11.30;;
15383;SDS011;7790;53.022;12.968;2022-07-10T09:07:45;21.27;;;9.83;;
15383;SDS011;7790;53.022;12.968;2022-07-10T09:11:45;27.40;;;13.43;;
15383;SDS011;7790;53.022;12.968;2022-07-10T09:15:49;21.17;;;11.83;;
15383;SDS011;7790;53.022;12.968;2022-07-10T09:19:50;24.70;;;11.20;;
15383;SDS011;7790;53.022;12.968;2022-07-10T09:23:51;23.43;;;10.60;;
15383;SDS011;7790;53.022;12.968;2022-07-10T09:27:55;18.27;;;7.57;;
15383;SDS011;7790;53.022;12.968;2022-07-10T09:32:01;16.90;;;6.47;;
15383;SDS011;7790;53.022;12.968;2022-07-10T09:40:10;20.03;;;5.90;;
15383;SDS011;7790;53.022;12.968;2022-07-10T09:44:11;15.83;;;6.07;;
15383;SDS011;7790;53.022;12.968;2022-07-10T09:48:15;13.50;;;5.03;;
15383;SDS011;7790;53.022;12.968;2022-07-10T09:52:23;13.73;;;4.87;;
15383;SDS011;7790;53.022;12.968;2022-07-10T09:56:25;11.20;;;4.00;;
15383;SDS011;7790;53.022;12.968;2022-07-10T10:00:28;24.37;;;4.30;;
15383;SDS011;7790;53.022;12.968;2022-07-10T10:04:31;20.30;;;4.43;;
15383;SDS011;7790;53.022;12.968;2022-07-10T10:08:37;17.00;;;3.67;;
15383;SDS011;7790;53.022;12.968;2022-07-10T10:12:51;10.90;;;3.63;;
15383;SDS011;7790;53.022;12.968;2022-07-10T10:16:57;8.73;;;3.33;;
15383;SDS011;7790;53.022;12.968;2022-07-10T10:21:00;8.53;;;3.27;;
15383;SDS011;7790;53.022;12.968;2022-07-10T10:25:01;13.23;;;2.73;;
15383;SDS011;7790;53.022;12.968;2022-07-10T10:29:04;8.53;;;2.60;;
15383;SDS011;7790;53.022;12.968;2022-07-10T10:34:07;5.83;;;2.40;;
15383;SDS011;7790;53.022;12.968;2022-07-10T10:37:42;5.33;;;2.57;;
15383;SDS011;7790;53.022;12.968;2022-07-10T10:41:51;5.83;;;2.47;;
15383;SDS011;7790;53.022;12.968;2022-07-10T10:45:53;4.60;;;2.10;;
15383;SDS011;7790;53.022;12.968;2022-07-10T10:49:54;6.00;;;2.10;;
15383;SDS011;7790;53.022;12.968;2022-07-10T10:54:06;8.13;;;2.67;;
15383;SDS011;7790;53.022;12.968;2022-07-10T10:58:16;6.47;;;2.40;;
15383;SDS011;7790;53.022;12.968;2022-07-10T11:02:22;5.17;;;1.83;;
15383;SDS011;7790;53.022;12.968;2022-07-10T11:06:39;8.57;;;2.10;;
15383;SDS011;7790;53.022;12.968;2022-07-10T11:10:42;6.00;;;1.93;;
15383;SDS011;7790;53.022;12.968;2022-07-10T11:14:45;8.17;;;1.87;;
15383;SDS011;7790;53.022;12.968;2022-07-10T11:18:51;5.87;;;1.80;;
15383;SDS011;7790;53.022;12.968;2022-07-10T11:31:21;7.63;;;2.00;;
15383;SDS011;7790;53.022;12.968;2022-07-10T11:35:24;8.87;;;2.07;;
15383;SDS011;7790;53.022;12.968;2022-07-10T11:39:25;5.27;;;1.83;;
15383;SDS011;7790;53.022;12.968;2022-07-10T11:43:26;4.93;;;1.60;;
15383;SDS011;7790;53.022;12.968;2022-07-10T11:47:27;4.90;;;1.80;;
15383;SDS011;7790;53.022;12.968;2022-07-10T11:51:37;6.37;;;1.83;;
15383;SDS011;7790;53.022;12.968;2022-07-10T11:55:39;5.30;;;1.40;;
15383;SDS011;7790;53.022;12.968;2022-07-10T11:59:41;3.70;;;1.67;;
15383;SDS011;7790;53.022;12.968;2022-07-10T12:03:41;5.27;;;1.63;;
15383;SDS011;7790;53.022;12.968;2022-07-10T12:07:42;5.67;;;1.63;;
15383;SDS011;7790;53.022;12.968;2022-07-10T12:11:44;6.13;;;2.00;;
15383;SDS011;7790;53.022;12.968;2022-07-10T12:15:59;6.03;;;1.50;;
15383;SDS011;7790;53.022;12.968;2022-07-10T12:19:59;4.10;;;1.60;;
15383;SDS011;7790;53.022;12.968;2022-07-10T12:24:00;3.50;;;1.40;;
15383;SDS011;7790;53.022;12.968;2022-07-10T12:28:03;3.13;;;1.53;;
15383;SDS011;7790;53.022;12.968;2022-07-10T12:32:04;4.23;;;1.60;;
15383;SDS011;7790;53.022;12.968;2022-07-10T12:36:05;4.47;;;1.33;;
15383;SDS011;7790;53.022;12.968;2022-07-10T12:40:06;5.37;;;1.60;;
15383;SDS011;7790;53.022;12.968;2022-07-10T12:44:12;7.80;;;1.70;;
15383;SDS011;7790;53.022;12.968;2022-07-10T12:48:21;1.93;;;1.13;;
15383;SDS011;7790;53.022;12.968;2022-07-10T12:52:23;4.57;;;1.63;;
15383;SDS011;7790;53.022;12.968;2022-07-10T12:56:44;4.30;;;1.40;;
15383;SDS011;7790;53.022;12.968;2022-07-10T13:00:46;5.50;;;1.50;;
15383;SDS011;7790;53.022;12.968;2022-07-10T13:04:54;4.07;;;1.40;;
15383;SDS011;7790;53.022;12.968;2022-07-10T13:08:55;4.27;;;1.40;;
15383;SDS011;7790;53.022;12.968;2022-07-10T13:12:56;5.53;;;1.67;;
15383;SDS011;7790;53.022;12.968;2022-07-10T13:16:57;5.07;;;1.40;;
15383;SDS011;7790;53.022;12.968;2022-07-10T13:20:58;5.03;;;1.43;;
15383;SDS011;7790;53.022;12.968;2022-07-10T13:24:59;5.83;;;1.50;;
15383;SDS011;7790;53.022;12.968;2022-07-10T13:29:01;3.80;;;1.30;;
15383;SDS011;7790;53.022;12.968;2022-07-10T13:33:02;3.40;;;1.23;;
15383;SDS011;7790;53.022;12.968;2022-07-10T13:37:03;5.13;;;1.23;;
15383;SDS011;7790;53.022;12.968;2022-07-10T13:41:05;4.60;;;1.33;;
15383;SDS011;7790;53.022;12.968;2022-07-10T13:45:06;4.13;;;1.20;;
15383;SDS011;7790;53.022;12.968;2022-07-10T13:49:08;3.60;;;1.53;;
15383;SDS011;7790;53.022;12.968;2022-07-10T13:53:09;9.63;;;1.70;;
15383;SDS011;7790;53.022;12.968;2022-07-10T13:57:10;3.50;;;1.37;;
15383;SDS011;7790;53.022;12.968;2022-07-10T14:01:11;4.13;;;1.27;;
15383;SDS011;7790;53.022;12.968;2022-07-10T14:05:12;2.73;;;1.00;;
15383;SDS011;7790;53.022;12.968;2022-07-10T14:09:13;4.60;;;1.20;;
15383;SDS011;7790;53.022;12.968;2022-07-10T14:13:14;3.50;;;1.07;;
15383;SDS011;7790;53.022;12.968;2022-07-10T14:17:15;2.97;;;1.00;;
15383;SDS011;7790;53.022;12.968;2022-07-10T14:21:15;2.00;;;1.07;;
15383;SDS011;7790;53.022;12.968;2022-07-10T14:25:16;2.67;;;1.20;;
15383;SDS011;7790;53.022;12.968;2022-07-10T14:29:18;3.17;;;1.10;;
15383;SDS011;7790;53.022;12.968;2022-07-10T14:33:20;3.23;;;1.17;;
15383;SDS011;7790;53.022;12.968;2022-07-10T14:37:21;4.77;;;1.47;;
15383;SDS011;7790;53.022;12.968;2022-07-10T14:41:23;3.10;;;1.10;;
15383;SDS011;7790;53.022;12.968;2022-07-10T14:45:24;3.27;;;1.20;;
15383;SDS011;7790;53.022;12.968;2022-07-10T14:49:25;3.27;;;1.10;;
15383;SDS011;7790;53.022;12.968;2022-07-10T14:53:26;3.87;;;1.23;;
15383;SDS011;7790;53.022;12.968;2022-07-10T14:57:27;8.43;;;1.73;;
15383;SDS011;7790;53.022;12.968;2022-07-10T15:01:27;7.27;;;1.70;;
15383;SDS011;7790;53.022;12.968;2022-07-10T15:05:28;8.03;;;1.73;;
15383;SDS011;7790;53.022;12.968;2022-07-10T15:09:29;7.20;;;1.40;;
15383;SDS011;7790;53.022;12.968;2022-07-10T15:13:30;7.40;;;1.63;;
15383;SDS011;7790;53.022;12.968;2022-07-10T15:17:31;2.97;;;1.20;;
15383;SDS011;7790;53.022;12.968;2022-07-10T15:21:32;4.30;;;1.27;;
15383;SDS011;7790;53.022;12.968;2022-07-10T15:25:33;3.37;;;1.67;;
15383;SDS011;7790;53.022;12.968;2022-07-10T15:29:34;5.57;;;1.80;;
15383;SDS011;7790;53.022;12.968;2022-07-10T15:33:35;5.53;;;1.43;;
15383;SDS011;7790;53.022;12.968;2022-07-10T15:37:38;5.33;;;1.50;;
15383;SDS011;7790;53.022;12.968;2022-07-10T15:41:39;5.47;;;1.80;;
15383;SDS011;7790;53.022;12.968;2022-07-10T15:45:45;5.53;;;1.53;;
15383;SDS011;7790;53.022;12.968;2022-07-10T15:49:46;5.00;;;1.57;;
15383;SDS011;7790;53.022;12.968;2022-07-10T15:53:46;3.73;;;1.43;;
15383;SDS011;7790;53.022;12.968;2022-07-10T15:57:47;6.00;;;1.80;;
15383;SDS011;7790;53.022;12.968;2022-07-10T16:01:49;3.83;;;1.67;;
15383;SDS011;7790;53.022;12.968;2022-07-10T16:05:51;5.53;;;1.67;;
15383;SDS011;7790;53.022;12.968;2022-07-10T16:09:52;5.13;;;1.57;;
15383;SDS011;7790;53.022;12.968;2022-07-10T16:13:53;6.07;;;1.80;;
15383;SDS011;7790;53.022;12.968;2022-07-10T16:17:53;5.67;;;1.40;;
15383;SDS011;7790;53.022;12.968;2022-07-10T16:21:54;5.40;;;1.50;;
15383;SDS011;7790;53.022;12.968;2022-07-10T16:25:55;7.27;;;1.80;;
15383;SDS011;7790;53.022;12.968;2022-07-10T16:30:03;6.00;;;1.70;;
15383;SDS011;7790;53.022;12.968;2022-07-10T16:34:04;5.60;;;1.57;;
15383;SDS011;7790;53.022;12.968;2022-07-10T16:38:05;8.03;;;1.80;;
15383;SDS011;7790;53.022;12.968;2022-07-10T16:42:06;7.27;;;1.90;;
15383;SDS011;7790;53.022;12.968;2022-07-10T16:46:07;5.23;;;1.60;;
15383;SDS011;7790;53.022;12.968;2022-07-10T16:50:08;6.73;;;1.80;;
15383;SDS011;7790;53.022;12.968;2022-07-10T16:54:09;4.67;;;1.50;;
15383;SDS011;7790;53.022;12.968;2022-07-10T16:58:09;6.17;;;1.70;;
15383;SDS011;7790;53.022;12.968;2022-07-10T17:02:10;6.23;;;1.90;;
15383;SDS011;7790;53.022;12.968;2022-07-10T17:06:11;3.30;;;1.50;;
15383;SDS011;7790;53.022;12.968;2022-07-10T17:10:12;9.80;;;1.90;;
15383;SDS011;7790;53.022;12.968;2022-07-10T17:14:13;6.50;;;1.50;;
15383;SDS011;7790;53.022;12.968;2022-07-10T17:18:13;4.50;;;1.60;;
15383;SDS011;7790;53.022;12.968;2022-07-10T17:22:14;3.30;;;1.40;;
15383;SDS011;7790;53.022;12.968;2022-07-10T17:26:15;5.67;;;1.63;;
15383;SDS011;7790;53.022;12.968;2022-07-10T17:30:16;6.00;;;1.53;;
15383;SDS011;7790;53.022;12.968;2022-07-10T17:34:20;3.73;;;1.50;;
15383;SDS011;7790;53.022;12.968;2022-07-10T17:38:21;6.87;;;1.60;;
15383;SDS011;7790;53.022;12.968;2022-07-10T17:42:23;6.20;;;1.73;;
15383;SDS011;7790;53.022;12.968;2022-07-10T17:46:24;7.57;;;1.80;;
15383;SDS011;7790;53.022;12.968;2022-07-10T17:50:25;4.83;;;1.67;;
15383;SDS011;7790;53.022;12.968;2022-07-10T17:54:26;7.53;;;1.83;;
15383;SDS011;7790;53.022;12.968;2022-07-10T17:58:27;4.57;;;1.50;;
15383;SDS011;7790;53.022;12.968;2022-07-10T18:02:29;5.00;;;1.43;;
15383;SDS011;7790;53.022;12.968;2022-07-10T18:06:29;4.13;;;1.40;;
15383;SDS011;7790;53.022;12.968;2022-07-10T18:10:30;3.47;;;1.47;;
15383;SDS011;7790;53.022;12.968;2022-07-10T18:14:31;5.27;;;1.50;;
15383;SDS011;7790;53.022;12.968;2022-07-10T18:18:32;3.93;;;1.00;;
15383;SDS011;7790;53.022;12.968;2022-07-10T18:22:33;6.57;;;1.07;;
15383;SDS011;7790;53.022;12.968;2022-07-10T18:26:34;7.87;;;1.57;;
15383;SDS011;7790;53.022;12.968;2022-07-10T18:30:35;3.23;;;1.30;;
15383;SDS011;7790;53.022;12.968;2022-07-10T18:34:36;4.83;;;1.50;;
15383;SDS011;7790;53.022;12.968;2022-07-10T18:38:40;2.30;;;1.43;;
15383;SDS011;7790;53.022;12.968;2022-07-10T18:42:41;4.40;;;1.13;;
15383;SDS011;7790;53.022;12.968;2022-07-10T18:46:42;2.60;;;1.10;;
15383;SDS011;7790;53.022;12.968;2022-07-10T18:50:42;3.87;;;0.87;;
15383;SDS011;7790;53.022;12.968;2022-07-10T18:54:43;3.30;;;1.13;;
15383;SDS011;7790;53.022;12.968;2022-07-10T18:58:44;4.37;;;1.20;;
15383;SDS011;7790;53.022;12.968;2022-07-10T19:02:45;2.83;;;1.13;;
15383;SDS011;7790;53.022;12.968;2022-07-10T19:06:46;2.70;;;1.10;;
15383;SDS011;7790;53.022;12.968;2022-07-10T19:10:47;3.47;;;1.00;;
15383;SDS011;7790;53.022;12.968;2022-07-10T19:14:48;7.27;;;1.90;;
15383;SDS011;7790;53.022;12.968;2022-07-10T19:18:49;3.97;;;1.30;;
15383;SDS011;7790;53.022;12.968;2022-07-10T19:22:49;7.50;;;1.37;;
15383;SDS011;7790;53.022;12.968;2022-07-10T19:26:50;6.73;;;1.13;;
15383;SDS011;7790;53.022;12.968;2022-07-10T19:30:51;2.70;;;0.80;;
15383;SDS011;7790;53.022;12.968;2022-07-10T19:34:52;4.73;;;1.30;;
15383;SDS011;7790;53.022;12.968;2022-07-10T19:38:55;4.80;;;1.40;;
15383;SDS011;7790;53.022;12.968;2022-07-10T19:42:56;3.23;;;1.53;;
15383;SDS011;7790;53.022;12.968;2022-07-10T19:46:59;5.87;;;1.20;;
15383;SDS011;7790;53.022;12.968;2022-07-10T19:51:04;5.27;;;1.20;;
15383;SDS011;7790;53.022;12.968;2022-07-10T19:55:06;3.50;;;1.00;;
15383;SDS011;7790;53.022;12.968;2022-07-10T19:59:08;4.17;;;1.40;;
15383;SDS011;7790;53.022;12.968;2022-07-10T20:03:09;6.50;;;1.50;;
15383;SDS011;7790;53.022;12.968;2022-07-10T20:07:09;4.60;;;1.23;;
15383;SDS011;7790;53.022;12.968;2022-07-10T20:11:10;2.13;;;1.03;;
15383;SDS011;7790;53.022;12.968;2022-07-10T20:15:11;7.03;;;1.70;;
15383;SDS011;7790;53.022;12.968;2022-07-10T20:19:12;5.50;;;0.80;;
15383;SDS011;7790;53.022;12.968;2022-07-10T20:23:13;4.63;;;1.37;;
15383;SDS011;7790;53.022;12.968;2022-07-10T20:27:14;4.67;;;1.10;;
15383;SDS011;7790;53.022;12.968;2022-07-10T20:31:16;5.03;;;1.13;;
15383;SDS011;7790;53.022;12.968;2022-07-10T20:35:16;7.70;;;1.50;;
15383;SDS011;7790;53.022;12.968;2022-07-10T20:39:17;7.20;;;1.20;;
15383;SDS011;7790;53.022;12.968;2022-07-10T20:43:18;4.73;;;1.20;;
15383;SDS011;7790;53.022;12.968;2022-07-10T20:47:19;3.40;;;1.13;;
15383;SDS011;7790;53.022;12.968;2022-07-10T20:51:20;4.53;;;1.43;;
15383;SDS011;7790;53.022;12.968;2022-07-10T20:55:21;4.00;;;1.07;;
15383;SDS011;7790;53.022;12.968;2022-07-10T20:59:24;4.20;;;1.13;;
15383;SDS011;7790;53.022;12.968;2022-07-10T21:03:25;2.67;;;0.83;;
15383;SDS011;7790;53.022;12.968;2022-07-10T21:07:26;3.87;;;1.00;;
15383;SDS011;7790;53.022;12.968;2022-07-10T21:11:27;2.67;;;0.90;;
15383;SDS011;7790;53.022;12.968;2022-07-10T21:15:27;2.50;;;0.87;;
15383;SDS011;7790;53.022;12.968;2022-07-10T21:19:29;3.63;;;1.20;;
15383;SDS011;7790;53.022;12.968;2022-07-10T21:23:30;2.03;;;0.70;;
15383;SDS011;7790;53.022;12.968;2022-07-10T21:27:31;3.37;;;0.97;;
15383;SDS011;7790;53.022;12.968;2022-07-10T21:31:32;3.23;;;1.10;;
15383;SDS011;7790;53.022;12.968;2022-07-10T21:35:32;2.77;;;1.10;;
15383;SDS011;7790;53.022;12.968;2022-07-10T21:39:33;3.37;;;0.97;;
15383;SDS011;7790;53.022;12.968;2022-07-10T21:43:34;2.03;;;0.93;;
15383;SDS011;7790;53.022;12.968;2022-07-10T21:47:35;3.10;;;0.90;;
15383;SDS011;7790;53.022;12.968;2022-07-10T21:51:36;4.13;;;0.93;;
15383;SDS011;7790;53.022;12.968;2022-07-10T21:55:37;2.87;;;1.10;;
15383;SDS011;7790;53.022;12.968;2022-07-10T21:59:38;3.90;;;1.20;;
15383;SDS011;7790;53.022;12.968;2022-07-10T22:03:39;1.53;;;0.90;;
15383;SDS011;7790;53.022;12.968;2022-07-10T22:07:40;3.87;;;0.80;;
15383;SDS011;7790;53.022;12.968;2022-07-10T22:11:41;2.47;;;1.00;;
15383;SDS011;7790;53.022;12.968;2022-07-10T22:15:42;1.63;;;1.07;;
15383;SDS011;7790;53.022;12.968;2022-07-10T22:19:43;0.77;;;0.77;;
15383;SDS011;7790;53.022;12.968;2022-07-10T22:23:44;3.17;;;0.80;;
15383;SDS011;7790;53.022;12.968;2022-07-10T22:27:48;2.27;;;0.83;;
15383;SDS011;7790;53.022;12.968;2022-07-10T22:31:49;1.53;;;0.90;;
15383;SDS011;7790;53.022;12.968;2022-07-10T22:35:50;2.40;;;0.90;;
15383;SDS011;7790;53.022;12.968;2022-07-10T22:39:50;2.50;;;0.73;;
15383;SDS011;7790;53.022;12.968;2022-07-10T22:43:51;2.57;;;1.10;;
15383;SDS011;7790;53.022;12.968;2022-07-10T22:47:52;1.47;;;0.80;;
15383;SDS011;7790;53.022;12.968;2022-07-10T22:51:53;1.77;;;1.10;;
15383;SDS011;7790;53.022;12.968;2022-07-10T22:55:57;2.40;;;1.20;;
15383;SDS011;7790;53.022;12.968;2022-07-10T22:59:58;2.43;;;1.00;;
15383;SDS011;7790;53.022;12.968;2022-07-10T23:03:59;2.87;;;1.03;;
15383;SDS011;7790;53.022;12.968;2022-07-10T23:08:00;2.37;;;1.23;;
15383;SDS011;7790;53.022;12.968;2022-07-10T23:12:01;3.60;;;1.43;;
15383;SDS011;7790;53.022;12.968;2022-07-10T23:16:03;2.33;;;1.00;;
15383;SDS011;7790;53.022;12.968;2022-07-10T23:20:04;3.17;;;0.97;;
15383;SDS011;7790;53.022;12.968;2022-07-10T23:24:06;1.43;;;1.10;;
15383;SDS011;7790;53.022;12.968;2022-07-10T23:28:07;3.43;;;1.30;;
15383;SDS011;7790;53.022;12.968;2022-07-10T23:32:07;2.87;;;1.10;;
15383;SDS011;7790;53.022;12.968;2022-07-10T23:36:08;4.17;;;1.20;;
15383;SDS011;7790;53.022;12.968;2022-07-10T23:40:10;2.83;;;1.20;;
15383;SDS011;7790;53.022;12.968;2022-07-10T23:44:11;1.43;;;0.83;;
15383;SDS011;7790;53.022;12.968;2022-07-10T23:48:12;3.30;;;1.30;;
15383;SDS011;7790;53.022;12.968;2022-07-10T23:52:36;2.03;;;1.10;;
15383;SDS011;7790;53.022;12.968;2022-07-10T23:56:41;1.90;;;1.00;;
